Time;durP1;ratioP1;P1;durP2;ratioP2;P2;SDS_P1;SDS_P2;PMS_P1;PMS_P2;Temp;Humidity;BMP_temperature;BMP_pressure;BME280_temperature;BME280_humidity;BME280_pressure;Samples;Min_cycle;Max_cycle;Signal;HPM_P1;HPM_P2
2022/08/16 00:01:57;;;;;;;4.17;3.60;;;;;;;;;;10413343;28;20238;-72
2022/08/16 00:06:58;;;;;;;3.90;3.50;;;;;;;;;;10403454;28;20247;-73
2022/08/16 00:11:59;;;;;;;4.63;3.30;;;;;;;;;;10410169;28;20235;-72
2022/08/16 00:17:00;;;;;;;3.60;3.23;;;;;;;;;;10407878;28;20227;-72
2022/08/16 00:22:01;;;;;;;5.07;3.70;;;;;;;;;;10404405;28;20629;-71
2022/08/16 00:27:04;;;;;;;4.63;3.70;;;;;;;;;;10399809;28;20224;-71
2022/08/16 00:32:06;;;;;;;3.73;3.30;;;;;;;;;;10402915;28;20699;-72
2022/08/16 00:37:07;;;;;;;3.87;3.50;;;;;;;;;;10414620;28;20220;-72
2022/08/16 00:42:08;;;;;;;3.73;3.43;;;;;;;;;;10403754;28;20573;-71
2022/08/16 00:47:15;;;;;;;8.07;4.50;;;;;;;;;;10409091;28;20219;-72
2022/08/16 00:52:16;;;;;;;3.90;3.60;;;;;;;;;;10404121;28;20239;-71
2022/08/16 00:57:17;;;;;;;4.83;3.90;;;;;;;;;;10406686;28;20235;-72
2022/08/16 01:02:18;;;;;;;5.47;3.80;;;;;;;;;;10411476;28;20973;-72
2022/08/16 01:07:19;;;;;;;5.13;4.07;;;;;;;;;;10398626;28;20235;-72
2022/08/16 01:12:21;;;;;;;5.33;4.00;;;;;;;;;;10402102;28;20250;-71
2022/08/16 01:17:22;;;;;;;5.70;4.17;;;;;;;;;;10393825;28;20583;-70
2022/08/16 01:22:42;;;;;;;4.37;3.97;;;;;;;;;;10402490;28;20239;-72
2022/08/16 01:27:53;;;;;;;3.80;3.50;;;;;;;;;;10395101;28;20731;-71
2022/08/16 01:32:58;;;;;;;4.27;3.87;;;;;;;;;;10407995;28;20230;-73
2022/08/16 01:38:13;;;;;;;4.07;3.70;;;;;;;;;;10405207;28;20863;-74
2022/08/16 01:43:14;;;;;;;5.73;3.80;;;;;;;;;;10391895;28;20227;-72
2022/08/16 01:48:15;;;;;;;4.50;4.03;;;;;;;;;;10404892;28;20222;-72
2022/08/16 01:53:16;;;;;;;4.57;4.00;;;;;;;;;;10411972;28;20231;-72
2022/08/16 01:58:18;;;;;;;5.10;4.50;;;;;;;;;;10404370;28;20230;-72
2022/08/16 02:03:19;;;;;;;4.67;4.17;;;;;;;;;;10403639;28;20585;-71
2022/08/16 02:08:20;;;;;;;4.47;4.07;;;;;;;;;;10402439;28;20223;-71
2022/08/16 02:13:21;;;;;;;6.50;4.53;;;;;;;;;;10403603;28;20292;-71
2022/08/16 02:18:22;;;;;;;7.07;4.30;;;;;;;;;;10404099;28;20230;-71
2022/08/16 02:23:23;;;;;;;5.67;4.40;;;;;;;;;;10407882;28;20772;-71
2022/08/16 02:28:25;;;;;;;4.83;4.33;;;;;;;;;;10408400;28;20718;-72
2022/08/16 02:33:26;;;;;;;5.03;4.37;;;;;;;;;;10399514;28;20229;-72
2022/08/16 02:38:28;;;;;;;6.07;4.50;;;;;;;;;;10406784;28;20246;-72
2022/08/16 02:43:30;;;;;;;5.90;4.63;;;;;;;;;;10410014;28;20231;-72
2022/08/16 02:48:34;;;;;;;5.73;4.30;;;;;;;;;;10393754;28;20226;-74
2022/08/16 02:53:35;;;;;;;5.20;4.57;;;;;;;;;;10411467;28;20314;-72
2022/08/16 02:58:37;;;;;;;7.80;5.30;;;;;;;;;;10410733;28;20218;-72
2022/08/16 03:03:38;;;;;;;4.73;4.23;;;;;;;;;;10410670;28;20220;-72
2022/08/16 03:08:39;;;;;;;4.97;4.57;;;;;;;;;;10404705;28;20215;-72
2022/08/16 03:13:40;;;;;;;5.37;4.87;;;;;;;;;;10409052;28;20245;-72
2022/08/16 03:18:42;;;;;;;5.57;4.87;;;;;;;;;;10402497;28;20249;-72
2022/08/16 03:23:43;;;;;;;6.17;5.00;;;;;;;;;;10418533;28;20708;-72
2022/08/16 03:28:44;;;;;;;9.83;5.73;;;;;;;;;;10401804;28;20224;-71
2022/08/16 03:33:45;;;;;;;6.50;5.90;;;;;;;;;;10396797;28;20306;-71
2022/08/16 03:38:46;;;;;;;5.80;5.27;;;;;;;;;;10407180;28;20230;-72
2022/08/16 03:43:47;;;;;;;6.67;5.67;;;;;;;;;;10409610;28;20229;-71
2022/08/16 03:48:48;;;;;;;8.53;5.90;;;;;;;;;;10412758;28;20214;-70
2022/08/16 03:53:49;;;;;;;6.50;5.60;;;;;;;;;;10415968;28;20590;-71
2022/08/16 03:58:50;;;;;;;7.53;6.83;;;;;;;;;;10414836;28;20237;-71
2022/08/16 04:03:52;;;;;;;7.10;6.40;;;;;;;;;;10410135;28;20222;-71
2022/08/16 04:08:53;;;;;;;6.93;6.20;;;;;;;;;;10398239;28;20226;-71
2022/08/16 04:13:54;;;;;;;6.70;6.00;;;;;;;;;;10416079;28;20311;-72
2022/08/16 04:18:56;;;;;;;6.27;5.60;;;;;;;;;;10410239;28;20314;-73
2022/08/16 04:23:57;;;;;;;6.60;5.90;;;;;;;;;;10406269;28;20227;-71
2022/08/16 04:28:59;;;;;;;6.90;6.20;;;;;;;;;;10398725;28;20231;-70
2022/08/16 04:34:00;;;;;;;6.67;5.97;;;;;;;;;;10414966;28;20219;-70
2022/08/16 04:39:01;;;;;;;8.40;5.83;;;;;;;;;;10398992;28;20223;-70
2022/08/16 04:44:02;;;;;;;6.43;5.80;;;;;;;;;;10407221;28;20262;-72
2022/08/16 04:49:03;;;;;;;9.93;6.23;;;;;;;;;;10414878;28;20620;-72
2022/08/16 04:54:04;;;;;;;7.93;6.60;;;;;;;;;;10413559;28;20316;-70
2022/08/16 04:59:07;;;;;;;9.53;6.83;;;;;;;;;;10388489;28;20301;-70
2022/08/16 05:04:08;;;;;;;7.33;6.50;;;;;;;;;;10403523;28;20299;-70
2022/08/16 05:09:09;;;;;;;7.33;6.23;;;;;;;;;;10405239;28;20226;-72
2022/08/16 05:14:10;;;;;;;8.33;6.30;;;;;;;;;;10406419;28;20235;-71
2022/08/16 05:19:11;;;;;;;6.57;5.80;;;;;;;;;;10397964;28;20230;-72
2022/08/16 05:24:12;;;;;;;6.83;5.40;;;;;;;;;;10406532;28;20302;-71
2022/08/16 05:29:13;;;;;;;6.37;5.83;;;;;;;;;;10409889;28;20219;-73
2022/08/16 05:34:14;;;;;;;8.13;6.73;;;;;;;;;;10395804;28;20306;-74
2022/08/16 05:39:15;;;;;;;6.23;5.63;;;;;;;;;;10398069;28;20228;-72
2022/08/16 05:44:16;;;;;;;8.07;6.80;;;;;;;;;;10398899;28;20229;-73
2022/08/16 05:49:17;;;;;;;7.80;7.10;;;;;;;;;;10391479;28;20221;-74
2022/08/16 05:54:22;;;;;;;7.67;6.90;;;;;;;;;;10395766;28;20324;-73
2022/08/16 05:59:24;;;;;;;7.40;5.87;;;;;;;;;;10391854;28;20224;-72
2022/08/16 06:04:25;;;;;;;8.23;6.40;;;;;;;;;;10400787;28;20232;-72
2022/08/16 06:09:29;;;;;;;7.40;6.10;;;;;;;;;;10391614;28;20668;-71
2022/08/16 06:14:30;;;;;;;10.00;6.93;;;;;;;;;;10396578;28;20239;-73
2022/08/16 06:19:31;;;;;;;8.73;5.80;;;;;;;;;;10393363;28;20218;-73
2022/08/16 06:24:32;;;;;;;8.77;4.97;;;;;;;;;;10402734;28;20219;-71
2022/08/16 06:29:33;;;;;;;5.07;4.40;;;;;;;;;;10398132;28;20217;-73
2022/08/16 06:34:34;;;;;;;5.73;5.10;;;;;;;;;;10407451;28;20278;-72
2022/08/16 06:39:35;;;;;;;6.27;5.00;;;;;;;;;;10403795;28;20224;-72
2022/08/16 06:44:36;;;;;;;5.80;4.73;;;;;;;;;;10405092;28;20224;-71
2022/08/16 06:49:38;;;;;;;5.73;4.60;;;;;;;;;;10411231;28;20588;-72
2022/08/16 06:54:39;;;;;;;6.73;4.50;;;;;;;;;;10407505;28;20318;-72
2022/08/16 06:59:40;;;;;;;5.27;4.30;;;;;;;;;;10402853;28;20768;-72
2022/08/16 07:04:41;;;;;;;6.20;4.57;;;;;;;;;;10407001;28;20220;-71
2022/08/16 07:09:42;;;;;;;7.13;5.37;;;;;;;;;;10412562;28;20213;-73
2022/08/16 07:14:43;;;;;;;6.40;5.60;;;;;;;;;;10402990;28;20217;-72
2022/08/16 07:19:44;;;;;;;10.43;6.90;;;;;;;;;;10399035;28;20301;-72
2022/08/16 07:24:46;;;;;;;7.13;5.47;;;;;;;;;;10406127;28;20312;-73
2022/08/16 07:29:47;;;;;;;6.40;5.50;;;;;;;;;;10401215;28;20219;-72
2022/08/16 07:34:48;;;;;;;5.83;4.90;;;;;;;;;;10400646;28;20217;-72
2022/08/16 07:39:49;;;;;;;5.33;4.37;;;;;;;;;;10402621;28;20209;-73
2022/08/16 07:44:50;;;;;;;5.97;5.30;;;;;;;;;;10392897;28;20232;-73
2022/08/16 07:49:51;;;;;;;5.07;4.03;;;;;;;;;;10400932;28;20216;-72
2022/08/16 07:54:52;;;;;;;5.87;4.67;;;;;;;;;;10400840;28;20228;-73
2022/08/16 07:59:53;;;;;;;7.27;5.50;;;;;;;;;;10392543;28;20213;-72
2022/08/16 08:04:55;;;;;;;5.40;4.80;;;;;;;;;;10400163;28;20255;-72
2022/08/16 08:10:00;;;;;;;6.90;3.97;;;;;;;;;;10392368;28;20233;-73
2022/08/16 08:15:01;;;;;;;6.87;5.40;;;;;;;;;;10406934;28;20225;-72
2022/08/16 08:20:03;;;;;;;6.47;4.53;;;;;;;;;;10393176;28;20210;-73
2022/08/16 08:25:05;;;;;;;8.03;4.97;;;;;;;;;;10403580;28;20225;-73
2022/08/16 08:30:06;;;;;;;4.90;4.47;;;;;;;;;;10401044;28;20184;-73
2022/08/16 08:35:07;;;;;;;4.63;4.17;;;;;;;;;;10397830;28;20225;-73
2022/08/16 08:40:10;;;;;;;6.30;4.27;;;;;;;;;;10393986;28;20568;-73
2022/08/16 08:45:11;;;;;;;5.30;3.57;;;;;;;;;;10397361;28;20213;-73
2022/08/16 08:50:15;;;;;;;7.20;4.33;;;;;;;;;;10392929;28;20705;-72
2022/08/16 08:55:21;;;;;;;4.50;4.10;;;;;;;;;;10404621;28;20212;-73
2022/08/16 09:00:24;;;;;;;6.73;5.03;;;;;;;;;;10394944;28;20189;-72
2022/08/16 09:05:26;;;;;;;4.40;3.57;;;;;;;;;;10393018;28;20221;-72
2022/08/16 09:10:27;;;;;;;4.77;3.50;;;;;;;;;;10393757;28;21097;-72
2022/08/16 09:15:28;;;;;;;7.47;4.50;;;;;;;;;;10401801;28;20221;-72
2022/08/16 09:20:30;;;;;;;4.10;3.70;;;;;;;;;;10397372;28;20585;-71
2022/08/16 09:25:34;;;;;;;3.90;3.50;;;;;;;;;;10393307;28;20569;-72
2022/08/16 09:30:35;;;;;;;8.97;3.93;;;;;;;;;;10391841;28;20254;-72
2022/08/16 09:35:36;;;;;;;4.27;3.63;;;;;;;;;;10395417;28;20216;-72
2022/08/16 09:40:37;;;;;;;4.67;4.10;;;;;;;;;;10390592;28;20765;-74
2022/08/16 09:45:40;;;;;;;5.50;3.70;;;;;;;;;;10394676;28;20578;-73
2022/08/16 09:50:42;;;;;;;6.70;3.27;;;;;;;;;;10392674;28;20241;-72
2022/08/16 09:55:45;;;;;;;5.50;3.95;;;;;;;;;;10405389;28;20214;-72
2022/08/16 10:00:47;;;;;;;5.37;3.37;;;;;;;;;;10400537;28;20236;-74
2022/08/16 10:05:49;;;;;;;3.87;3.50;;;;;;;;;;10386720;28;20237;-73
2022/08/16 10:16:13;;;;;;;4.83;3.20;;;;;;;;;;10396829;28;20216;-73
2022/08/16 10:21:14;;;;;;;4.83;3.20;;;;;;;;;;10401395;28;20646;-73
2022/08/16 10:26:16;;;;;;;4.63;3.10;;;;;;;;;;10404935;28;20213;-73
2022/08/16 10:31:17;;;;;;;3.83;3.20;;;;;;;;;;10387720;28;20227;-73
2022/08/16 10:36:18;;;;;;;3.67;3.08;;;;;;;;;;10389066;28;20232;-71
2022/08/16 10:41:19;;;;;;;5.63;3.75;;;;;;;;;;10391998;28;20225;-72
2022/08/16 10:46:21;;;;;;;4.20;3.10;;;;;;;;;;10384416;28;20228;-73
2022/08/16 10:51:23;;;;;;;3.65;3.35;;;;;;;;;;10396185;28;20232;-73
2022/08/16 10:56:27;;;;;;;5.77;3.53;;;;;;;;;;10394218;28;20311;-73
2022/08/16 11:01:28;;;;;;;4.63;3.40;;;;;;;;;;10393662;28;20288;-72
2022/08/16 11:06:29;;;;;;;4.10;3.60;;;;;;;;;;10390701;28;20308;-73
2022/08/16 11:11:30;;;;;;;4.50;3.43;;;;;;;;;;10386017;28;20810;-73
2022/08/16 11:16:31;;;;;;;4.47;3.43;;;;;;;;;;10396138;28;20216;-73
2022/08/16 11:21:32;;;;;;;5.63;2.97;;;;;;;;;;10411082;28;20221;-72
2022/08/16 11:26:33;;;;;;;2.23;2.10;;;;;;;;;;10401934;28;20209;-72
2022/08/16 11:31:34;;;;;;;3.43;3.10;;;;;;;;;;10395305;28;20769;-72
2022/08/16 11:36:36;;;;;;;3.80;2.90;;;;;;;;;;10402904;28;20623;-72
2022/08/16 11:41:37;;;;;;;3.30;3.00;;;;;;;;;;10399601;28;20228;-72
2022/08/16 11:46:38;;;;;;;4.80;3.80;;;;;;;;;;10394780;28;20213;-73
2022/08/16 11:51:42;;;;;;;4.63;3.77;;;;;;;;;;10398954;28;20224;-71
2022/08/16 11:56:43;;;;;;;4.50;3.87;;;;;;;;;;10407914;28;20278;-71
2022/08/16 12:01:44;;;;;;;4.00;3.53;;;;;;;;;;10384758;28;20235;-72
2022/08/16 12:06:45;;;;;;;3.50;3.20;;;;;;;;;;10391480;28;20580;-72
2022/08/16 12:11:46;;;;;;;4.40;3.60;;;;;;;;;;10398736;28;20318;-73
2022/08/16 12:16:47;;;;;;;5.57;3.27;;;;;;;;;;10401821;28;20217;-72
2022/08/16 12:21:48;;;;;;;4.87;3.40;;;;;;;;;;10401971;28;20712;-73
2022/08/16 12:26:49;;;;;;;3.87;3.47;;;;;;;;;;10391925;28;20228;-71
2022/08/16 12:31:50;;;;;;;3.40;3.10;;;;;;;;;;10399778;28;20225;-72
2022/08/16 12:36:51;;;;;;;4.07;3.63;;;;;;;;;;10400871;28;20237;-72
2022/08/16 12:41:52;;;;;;;6.00;3.57;;;;;;;;;;10405631;28;20279;-73
2022/08/16 12:52:13;;;;;;;3.43;3.13;;;;;;;;;;10393983;28;20225;-72
2022/08/16 12:57:14;;;;;;;5.67;3.27;;;;;;;;;;10396413;28;20237;-72
2022/08/16 13:02:15;;;;;;;4.17;3.10;;;;;;;;;;10393337;28;20224;-72
2022/08/16 13:07:16;;;;;;;4.57;3.43;;;;;;;;;;10395655;28;20220;-72
2022/08/16 13:12:22;;;;;;;3.70;3.30;;;;;;;;;;10389220;28;20221;-73
2022/08/16 13:17:24;;;;;;;3.93;3.50;;;;;;;;;;10400952;28;20259;-73
2022/08/16 13:22:25;;;;;;;5.00;3.10;;;;;;;;;;10392375;28;20231;-72
2022/08/16 13:27:26;;;;;;;4.67;3.43;;;;;;;;;;10394156;28;20631;-71
2022/08/16 13:32:27;;;;;;;3.00;2.80;;;;;;;;;;10389723;28;20680;-72
2022/08/16 13:37:31;;;;;;;5.13;3.03;;;;;;;;;;10392593;28;20685;-71
2022/08/16 13:42:32;;;;;;;3.27;2.70;;;;;;;;;;10394557;28;20243;-73
2022/08/16 13:47:34;;;;;;;2.97;2.77;;;;;;;;;;10392315;28;20225;-73
2022/08/16 13:52:35;;;;;;;3.40;2.73;;;;;;;;;;10401699;28;20213;-73
2022/08/16 13:57:36;;;;;;;2.67;2.47;;;;;;;;;;10397175;28;20232;-72
2022/08/16 14:02:37;;;;;;;3.67;2.53;;;;;;;;;;10379252;28;20225;-73
2022/08/16 14:07:38;;;;;;;3.63;2.80;;;;;;;;;;10394437;28;20315;-74
2022/08/16 14:12:39;;;;;;;2.53;2.37;;;;;;;;;;10396471;28;20597;-73
2022/08/16 14:17:42;;;;;;;2.77;2.57;;;;;;;;;;10396123;28;20691;-72
2022/08/16 14:22:44;;;;;;;2.97;2.77;;;;;;;;;;10388981;28;20221;-73
2022/08/16 14:27:45;;;;;;;2.30;2.20;;;;;;;;;;10404713;28;20214;-72
2022/08/16 14:32:50;;;;;;;4.00;2.70;;;;;;;;;;10396787;28;20225;-72
2022/08/16 14:37:54;;;;;;;2.80;2.60;;;;;;;;;;10394853;28;20595;-73
2022/08/16 14:42:55;;;;;;;2.47;2.27;;;;;;;;;;10394762;28;20212;-72
2022/08/16 14:47:56;;;;;;;2.77;2.30;;;;;;;;;;10387977;28;20634;-72
2022/08/16 14:52:59;;;;;;;2.10;2.00;;;;;;;;;;10403748;28;20246;-72
2022/08/16 14:58:01;;;;;;;5.83;2.53;;;;;;;;;;10402671;28;20228;-73
2022/08/16 15:03:04;;;;;;;3.77;2.80;;;;;;;;;;10394604;28;20235;-72
2022/08/16 15:08:05;;;;;;;2.50;2.17;;;;;;;;;;10395495;28;20236;-73
2022/08/16 15:13:10;;;;;;;3.37;2.73;;;;;;;;;;10411535;28;20217;-73
2022/08/16 15:18:13;;;;;;;2.60;2.43;;;;;;;;;;10403176;28;20260;-72
2022/08/16 15:23:14;;;;;;;2.50;2.30;;;;;;;;;;10392930;28;20290;-72
2022/08/16 15:28:17;;;;;;;2.67;2.37;;;;;;;;;;10397802;28;20826;-73
2022/08/16 15:33:18;;;;;;;2.20;2.03;;;;;;;;;;10399511;28;20225;-72
2022/08/16 15:38:21;;;;;;;2.37;2.17;;;;;;;;;;10397431;28;20233;-73
2022/08/16 15:43:22;;;;;;;2.70;1.97;;;;;;;;;;10398123;28;20266;-73
2022/08/16 15:48:24;;;;;;;3.03;2.47;;;;;;;;;;10402099;28;20238;-72
2022/08/16 15:53:29;;;;;;;3.30;2.30;;;;;;;;;;10405043;28;20240;-73
2022/08/16 15:58:31;;;;;;;3.43;2.47;;;;;;;;;;10402247;28;20229;-72
2022/08/16 16:03:32;;;;;;;5.90;2.53;;;;;;;;;;10391811;28;20228;-72
2022/08/16 16:08:33;;;;;;;3.30;2.77;;;;;;;;;;10398656;28;20216;-72
2022/08/16 16:13:34;;;;;;;2.83;2.50;;;;;;;;;;10394684;28;20225;-72
2022/08/16 16:18:37;;;;;;;3.40;2.67;;;;;;;;;;10405504;28;20691;-73
2022/08/16 16:23:40;;;;;;;5.10;2.40;;;;;;;;;;10393642;28;20256;-73
2022/08/16 16:28:41;;;;;;;2.20;2.00;;;;;;;;;;10405866;28;20224;-73
2022/08/16 16:33:43;;;;;;;4.50;2.23;;;;;;;;;;10413954;28;20312;-73
2022/08/16 16:38:46;;;;;;;3.73;2.67;;;;;;;;;;10400513;28;20234;-72
2022/08/16 16:43:48;;;;;;;6.07;2.73;;;;;;;;;;10399039;28;20232;-72
2022/08/16 16:48:50;;;;;;;5.40;2.50;;;;;;;;;;10399875;28;20650;-72
2022/08/16 16:53:51;;;;;;;3.00;2.63;;;;;;;;;;10392417;28;20229;-73
2022/08/16 16:58:55;;;;;;;3.50;2.87;;;;;;;;;;10383520;28;20606;-74
2022/08/16 17:03:56;;;;;;;3.17;2.50;;;;;;;;;;10397989;28;20266;-73
2022/08/16 17:08:57;;;;;;;6.13;2.90;;;;;;;;;;10399390;28;20615;-73
2022/08/16 17:13:58;;;;;;;3.20;2.90;;;;;;;;;;10390651;28;20866;-73
2022/08/16 17:19:09;;;;;;;4.60;2.97;;;;;;;;;;10391186;28;20221;-72
2022/08/16 17:24:12;;;;;;;2.80;2.60;;;;;;;;;;10395322;28;20227;-73
2022/08/16 17:29:13;;;;;;;3.63;2.90;;;;;;;;;;10393507;28;20235;-73
2022/08/16 17:34:19;;;;;;;3.10;2.80;;;;;;;;;;10405003;28;20644;-73
2022/08/16 17:39:20;;;;;;;6.50;2.60;;;;;;;;;;10397490;28;20701;-73
2022/08/16 17:44:21;;;;;;;3.57;2.70;;;;;;;;;;10401273;28;20232;-73
2022/08/16 17:49:23;;;;;;;3.00;2.77;;;;;;;;;;10399663;28;20219;-73
2022/08/16 17:54:24;;;;;;;3.10;2.80;;;;;;;;;;10404865;28;20223;-73
2022/08/16 17:59:25;;;;;;;5.97;3.10;;;;;;;;;;10402335;28;20224;-72
2022/08/16 18:04:26;;;;;;;3.50;2.80;;;;;;;;;;10403256;28;20255;-72
2022/08/16 18:09:28;;;;;;;3.40;3.10;;;;;;;;;;10396397;28;20304;-73
2022/08/16 18:14:29;;;;;;;2.90;2.70;;;;;;;;;;10391222;28;20268;-73
2022/08/16 18:19:29;;;;;;;3.20;3.00;;;;;;;;;;10398842;28;20224;-72
2022/08/16 18:24:30;;;;;;;4.23;2.90;;;;;;;;;;10390088;28;20325;-73
2022/08/16 18:29:31;;;;;;;4.07;3.57;;;;;;;;;;10406867;28;20798;-72
2022/08/16 18:34:35;;;;;;;5.47;4.03;;;;;;;;;;10395747;28;20225;-71
2022/08/16 18:39:36;;;;;;;4.33;3.93;;;;;;;;;;10399150;28;20230;-73
2022/08/16 18:44:39;;;;;;;3.93;3.63;;;;;;;;;;10397039;28;20300;-72
2022/08/16 18:49:39;;;;;;;4.20;3.70;;;;;;;;;;10402750;28;20309;-73
2022/08/16 18:54:40;;;;;;;3.67;3.37;;;;;;;;;;10398030;28;20787;-72
2022/08/16 18:59:44;;;;;;;4.00;3.60;;;;;;;;;;10400357;28;20224;-72
2022/08/16 19:04:45;;;;;;;4.13;3.73;;;;;;;;;;10397902;28;20269;-72
2022/08/16 19:09:47;;;;;;;6.70;4.60;;;;;;;;;;10396879;28;20578;-73
2022/08/16 19:14:48;;;;;;;7.20;4.10;;;;;;;;;;10395248;28;20213;-71
2022/08/16 19:19:48;;;;;;;4.50;4.10;;;;;;;;;;10402426;28;20219;-71
2022/08/16 19:24:50;;;;;;;4.30;3.97;;;;;;;;;;10385455;28;20229;-71
2022/08/16 19:29:51;;;;;;;5.77;4.80;;;;;;;;;;10392747;28;20258;-71
2022/08/16 19:34:52;;;;;;;5.80;4.10;;;;;;;;;;10378224;28;20228;-70
2022/08/16 19:39:53;;;;;;;3.73;3.43;;;;;;;;;;10410004;28;20214;-72
2022/08/16 19:44:56;;;;;;;5.03;4.23;;;;;;;;;;10401695;28;20232;-73
2022/08/16 19:49:57;;;;;;;5.20;4.03;;;;;;;;;;10403959;28;20566;-73
2022/08/16 19:54:59;;;;;;;7.33;3.93;;;;;;;;;;10409933;28;20285;-73
2022/08/16 20:00:00;;;;;;;6.20;5.07;;;;;;;;;;10401828;28;20219;-76
2022/08/16 20:05:02;;;;;;;5.87;5.27;;;;;;;;;;10404239;28;20237;-74
2022/08/16 20:10:05;;;;;;;6.50;5.17;;;;;;;;;;10404144;28;20209;-73
2022/08/16 20:15:08;;;;;;;7.17;5.33;;;;;;;;;;10387137;28;20298;-73
2022/08/16 20:20:10;;;;;;;6.87;5.50;;;;;;;;;;10406034;28;20181;-72
2022/08/16 20:25:16;;;;;;;6.23;5.63;;;;;;;;;;10405018;28;20217;-72
2022/08/16 20:30:17;;;;;;;6.53;5.33;;;;;;;;;;10396818;28;20186;-74
2022/08/16 20:35:20;;;;;;;6.77;5.20;;;;;;;;;;10403161;28;20240;-72
2022/08/16 20:40:23;;;;;;;6.90;5.80;;;;;;;;;;10390335;28;20185;-72
2022/08/16 20:45:27;;;;;;;7.33;5.77;;;;;;;;;;10400805;28;20212;-73
2022/08/16 20:50:28;;;;;;;8.40;6.17;;;;;;;;;;10402041;28;20597;-73
2022/08/16 20:55:29;;;;;;;6.07;5.40;;;;;;;;;;10400397;28;20271;-73
2022/08/16 21:00:32;;;;;;;7.17;6.17;;;;;;;;;;10397176;28;20212;-73
2022/08/16 21:05:33;;;;;;;6.30;5.47;;;;;;;;;;10375555;28;20229;-75
2022/08/16 21:10:34;;;;;;;5.70;5.20;;;;;;;;;;10394761;28;20619;-73
2022/08/16 21:15:38;;;;;;;6.07;5.47;;;;;;;;;;10411475;28;20220;-73
2022/08/16 21:20:39;;;;;;;9.63;4.90;;;;;;;;;;10397314;28;20687;-72
2022/08/16 21:25:41;;;;;;;5.20;4.60;;;;;;;;;;10400881;28;20240;-72
2022/08/16 21:30:42;;;;;;;5.70;5.20;;;;;;;;;;10403876;28;20251;-71
2022/08/16 21:35:44;;;;;;;5.87;5.27;;;;;;;;;;10406484;28;20214;-73
2022/08/16 21:40:45;;;;;;;5.90;4.70;;;;;;;;;;10396684;28;20223;-74
2022/08/16 21:45:47;;;;;;;4.73;4.30;;;;;;;;;;10399997;28;20727;-75
2022/08/16 21:50:48;;;;;;;8.03;4.53;;;;;;;;;;10396923;28;20255;-74
2022/08/16 21:55:56;;;;;;;4.87;3.67;;;;;;;;;;10402704;28;20225;-75
2022/08/16 22:00:58;;;;;;;5.20;4.03;;;;;;;;;;10399868;28;20221;-75
2022/08/16 22:05:59;;;;;;;4.43;3.90;;;;;;;;;;10394642;28;20236;-75
2022/08/16 22:11:01;;;;;;;5.23;3.80;;;;;;;;;;10400109;28;20664;-74
2022/08/16 22:16:03;;;;;;;5.17;4.33;;;;;;;;;;10412728;28;20706;-74
2022/08/16 22:21:04;;;;;;;5.07;3.70;;;;;;;;;;10397898;28;20703;-74
2022/08/16 22:26:05;;;;;;;3.80;3.50;;;;;;;;;;10400756;28;20255;-75
2022/08/16 22:31:06;;;;;;;4.40;3.67;;;;;;;;;;10396276;28;20220;-74
2022/08/16 22:36:08;;;;;;;4.17;3.30;;;;;;;;;;10407444;28;20219;-75
2022/08/16 22:41:08;;;;;;;3.43;3.13;;;;;;;;;;10398177;28;20224;-75
2022/08/16 22:46:12;;;;;;;5.87;3.93;;;;;;;;;;10396157;28;20251;-75
2022/08/16 22:51:13;;;;;;;4.30;3.90;;;;;;;;;;10399102;28;20294;-74
2022/08/16 22:56:16;;;;;;;3.97;3.50;;;;;;;;;;10386814;28;20825;-73
2022/08/16 23:01:18;;;;;;;5.40;3.17;;;;;;;;;;10396167;28;20220;-73
2022/08/16 23:06:19;;;;;;;4.37;3.37;;;;;;;;;;10400701;28;20233;-74
2022/08/16 23:11:22;;;;;;;4.00;3.47;;;;;;;;;;10388751;28;20625;-73
2022/08/16 23:16:26;;;;;;;5.27;3.53;;;;;;;;;;10403714;28;20217;-73
2022/08/16 23:21:27;;;;;;;6.37;3.67;;;;;;;;;;10399946;28;20216;-74
2022/08/16 23:26:29;;;;;;;4.30;3.90;;;;;;;;;;10403555;28;20224;-74
2022/08/16 23:31:31;;;;;;;6.23;4.37;;;;;;;;;;10403918;28;20216;-74
2022/08/16 23:36:32;;;;;;;4.73;4.00;;;;;;;;;;10415431;28;20252;-73
2022/08/16 23:41:33;;;;;;;6.53;4.70;;;;;;;;;;10406209;28;20251;-74
2022/08/16 23:46:34;;;;;;;4.90;4.27;;;;;;;;;;10404754;28;20246;-75
2022/08/16 23:51:35;;;;;;;4.57;4.00;;;;;;;;;;10403141;28;20212;-75
2022/08/16 23:56:36;;;;;;;4.50;4.00;;;;;;;;;;10406193;28;20225;-74
